sensor_id;sensor_type;location;lat;lon;timestamp;P1;durP1;ratioP1;P2;durP2;ratioP2
56239;SDS011;42154;51.992;5.896;2024-02-23T00:00:27;1.92;;;0.52;;
56239;SDS011;42154;51.992;5.896;2024-02-23T00:02:53;4.72;;;0.70;;
56239;SDS011;42154;51.992;5.896;2024-02-23T00:05:21;5.60;;;0.80;;
56239;SDS011;42154;51.992;5.896;2024-02-23T00:07:47;4.90;;;0.70;;
56239;SDS011;42154;51.992;5.896;2024-02-23T00:10:13;4.53;;;0.93;;
56239;SDS011;42154;51.992;5.896;2024-02-23T00:12:38;2.45;;;0.50;;
56239;SDS011;42154;51.992;5.896;2024-02-23T00:15:04;2.70;;;0.55;;
56239;SDS011;42154;51.992;5.896;2024-02-23T00:17:30;2.50;;;0.70;;
56239;SDS011;42154;51.992;5.896;2024-02-23T00:19:56;2.40;;;0.60;;
56239;SDS011;42154;51.992;5.896;2024-02-23T00:22:22;3.17;;;0.70;;
56239;SDS011;42154;51.992;5.896;2024-02-23T00:24:48;3.47;;;0.70;;
56239;SDS011;42154;51.992;5.896;2024-02-23T00:27:13;3.10;;;1.20;;
56239;SDS011;42154;51.992;5.896;2024-02-23T00:29:39;2.50;;;0.70;;
56239;SDS011;42154;51.992;5.896;2024-02-23T00:32:05;2.60;;;0.65;;
56239;SDS011;42154;51.992;5.896;2024-02-23T00:34:32;4.72;;;0.77;;
56239;SDS011;42154;51.992;5.896;2024-02-23T00:36:57;3.17;;;1.00;;
56239;SDS011;42154;51.992;5.896;2024-02-23T00:39:23;2.33;;;0.75;;
56239;SDS011;42154;51.992;5.896;2024-02-23T00:41:49;2.38;;;0.90;;
56239;SDS011;42154;51.992;5.896;2024-02-23T00:44:14;4.95;;;1.10;;
56239;SDS011;42154;51.992;5.896;2024-02-23T00:46:40;3.90;;;1.35;;
56239;SDS011;42154;51.992;5.896;2024-02-23T00:49:06;3.47;;;1.20;;
56239;SDS011;42154;51.992;5.896;2024-02-23T00:51:32;6.93;;;1.45;;
56239;SDS011;42154;51.992;5.896;2024-02-23T00:53:58;3.28;;;1.35;;
56239;SDS011;42154;51.992;5.896;2024-02-23T00:56:24;4.78;;;1.20;;
56239;SDS011;42154;51.992;5.896;2024-02-23T00:58:51;4.63;;;0.90;;
56239;SDS011;42154;51.992;5.896;2024-02-23T01:01:16;1.75;;;0.65;;
56239;SDS011;42154;51.992;5.896;2024-02-23T01:03:42;3.28;;;0.77;;
56239;SDS011;42154;51.992;5.896;2024-02-23T01:06:08;1.40;;;0.90;;
56239;SDS011;42154;51.992;5.896;2024-02-23T01:08:33;2.83;;;0.50;;
56239;SDS011;42154;51.992;5.896;2024-02-23T01:11:00;2.30;;;0.50;;
56239;SDS011;42154;51.992;5.896;2024-02-23T01:13:26;1.45;;;0.70;;
56239;SDS011;42154;51.992;5.896;2024-02-23T01:15:52;2.55;;;0.63;;
56239;SDS011;42154;51.992;5.896;2024-02-23T01:18:19;2.38;;;0.90;;
56239;SDS011;42154;51.992;5.896;2024-02-23T01:20:45;2.08;;;1.00;;
56239;SDS011;42154;51.992;5.896;2024-02-23T01:23:11;6.63;;;2.25;;
56239;SDS011;42154;51.992;5.896;2024-02-23T01:25:36;5.10;;;1.83;;
56239;SDS011;42154;51.992;5.896;2024-02-23T01:28:02;5.30;;;2.58;;
56239;SDS011;42154;51.992;5.896;2024-02-23T01:30:28;8.32;;;3.35;;
56239;SDS011;42154;51.992;5.896;2024-02-23T01:32:54;6.65;;;3.33;;
56239;SDS011;42154;51.992;5.896;2024-02-23T01:35:20;3.63;;;2.80;;
56239;SDS011;42154;51.992;5.896;2024-02-23T01:37:46;7.55;;;4.00;;
56239;SDS011;42154;51.992;5.896;2024-02-23T01:40:11;5.22;;;2.78;;
56239;SDS011;42154;51.992;5.896;2024-02-23T01:42:37;8.35;;;3.88;;
56239;SDS011;42154;51.992;5.896;2024-02-23T01:45:03;8.38;;;3.67;;
56239;SDS011;42154;51.992;5.896;2024-02-23T01:47:30;4.53;;;2.28;;
56239;SDS011;42154;51.992;5.896;2024-02-23T01:49:57;6.28;;;2.90;;
56239;SDS011;42154;51.992;5.896;2024-02-23T01:52:24;4.18;;;2.30;;
56239;SDS011;42154;51.992;5.896;2024-02-23T01:54:50;6.93;;;2.30;;
56239;SDS011;42154;51.992;5.896;2024-02-23T01:57:16;6.47;;;2.25;;
56239;SDS011;42154;51.992;5.896;2024-02-23T01:59:42;6.65;;;2.25;;
56239;SDS011;42154;51.992;5.896;2024-02-23T02:02:08;5.32;;;2.10;;
56239;SDS011;42154;51.992;5.896;2024-02-23T02:04:34;3.72;;;1.75;;
56239;SDS011;42154;51.992;5.896;2024-02-23T02:07:00;6.72;;;1.75;;
56239;SDS011;42154;51.992;5.896;2024-02-23T02:09:26;3.38;;;1.48;;
56239;SDS011;42154;51.992;5.896;2024-02-23T02:11:52;7.43;;;1.95;;
56239;SDS011;42154;51.992;5.896;2024-02-23T02:14:18;5.20;;;1.75;;
56239;SDS011;42154;51.992;5.896;2024-02-23T02:16:44;4.90;;;1.73;;
56239;SDS011;42154;51.992;5.896;2024-02-23T02:19:10;2.95;;;1.50;;
56239;SDS011;42154;51.992;5.896;2024-02-23T02:21:36;3.53;;;1.40;;
56239;SDS011;42154;51.992;5.896;2024-02-23T02:24:03;4.55;;;1.38;;
56239;SDS011;42154;51.992;5.896;2024-02-23T02:26:29;4.35;;;1.20;;
56239;SDS011;42154;51.992;5.896;2024-02-23T02:28:55;2.63;;;0.90;;
56239;SDS011;42154;51.992;5.896;2024-02-23T02:31:21;3.40;;;1.33;;
56239;SDS011;42154;51.992;5.896;2024-02-23T02:33:47;3.00;;;1.10;;
56239;SDS011;42154;51.992;5.896;2024-02-23T02:36:12;7.00;;;1.83;;
56239;SDS011;42154;51.992;5.896;2024-02-23T02:38:38;5.10;;;1.30;;
56239;SDS011;42154;51.992;5.896;2024-02-23T02:41:04;5.43;;;1.20;;
56239;SDS011;42154;51.992;5.896;2024-02-23T02:43:30;3.65;;;1.10;;
56239;SDS011;42154;51.992;5.896;2024-02-23T02:45:57;3.55;;;0.82;;
56239;SDS011;42154;51.992;5.896;2024-02-23T02:48:23;4.40;;;1.10;;
56239;SDS011;42154;51.992;5.896;2024-02-23T02:50:49;5.85;;;1.45;;
56239;SDS011;42154;51.992;5.896;2024-02-23T02:53:16;4.13;;;0.90;;
56239;SDS011;42154;51.992;5.896;2024-02-23T02:55:43;4.68;;;1.17;;
56239;SDS011;42154;51.992;5.896;2024-02-23T02:58:09;4.93;;;1.10;;
56239;SDS011;42154;51.992;5.896;2024-02-23T03:00:36;4.50;;;1.17;;
56239;SDS011;42154;51.992;5.896;2024-02-23T03:03:02;5.18;;;1.20;;
56239;SDS011;42154;51.992;5.896;2024-02-23T03:05:28;4.72;;;1.20;;
56239;SDS011;42154;51.992;5.896;2024-02-23T03:07:53;4.78;;;1.20;;
56239;SDS011;42154;51.992;5.896;2024-02-23T03:10:19;8.75;;;1.05;;
56239;SDS011;42154;51.992;5.896;2024-02-23T03:12:45;6.15;;;1.50;;
56239;SDS011;42154;51.992;5.896;2024-02-23T03:15:11;4.15;;;1.17;;
56239;SDS011;42154;51.992;5.896;2024-02-23T03:17:37;2.13;;;1.08;;
56239;SDS011;42154;51.992;5.896;2024-02-23T03:20:03;4.95;;;1.00;;
56239;SDS011;42154;51.992;5.896;2024-02-23T03:22:36;2.70;;;1.00;;
56239;SDS011;42154;51.992;5.896;2024-02-23T03:25:02;5.30;;;1.08;;
56239;SDS011;42154;51.992;5.896;2024-02-23T03:27:36;8.05;;;1.60;;
56239;SDS011;42154;51.992;5.896;2024-02-23T03:30:05;3.22;;;1.10;;
56239;SDS011;42154;51.992;5.896;2024-02-23T03:32:33;4.22;;;1.20;;
56239;SDS011;42154;51.992;5.896;2024-02-23T03:35:03;6.05;;;1.13;;
56239;SDS011;42154;51.992;5.896;2024-02-23T03:37:29;6.47;;;1.40;;
56239;SDS011;42154;51.992;5.896;2024-02-23T03:39:55;5.57;;;1.10;;
56239;SDS011;42154;51.992;5.896;2024-02-23T03:42:20;4.20;;;1.02;;
56239;SDS011;42154;51.992;5.896;2024-02-23T03:44:46;4.40;;;1.02;;
56239;SDS011;42154;51.992;5.896;2024-02-23T03:47:12;6.20;;;1.52;;
56239;SDS011;42154;51.992;5.896;2024-02-23T03:49:38;6.40;;;1.40;;
56239;SDS011;42154;51.992;5.896;2024-02-23T03:52:04;5.68;;;1.23;;
56239;SDS011;42154;51.992;5.896;2024-02-23T03:54:30;6.80;;;1.70;;
56239;SDS011;42154;51.992;5.896;2024-02-23T03:56:56;7.07;;;1.50;;
56239;SDS011;42154;51.992;5.896;2024-02-23T03:59:22;4.68;;;1.30;;
56239;SDS011;42154;51.992;5.896;2024-02-23T04:01:48;5.32;;;1.58;;
56239;SDS011;42154;51.992;5.896;2024-02-23T04:04:14;6.78;;;1.35;;
56239;SDS011;42154;51.992;5.896;2024-02-23T04:06:40;4.25;;;1.70;;
56239;SDS011;42154;51.992;5.896;2024-02-23T04:09:06;4.30;;;1.55;;
56239;SDS011;42154;51.992;5.896;2024-02-23T04:11:33;6.30;;;1.30;;
56239;SDS011;42154;51.992;5.896;2024-02-23T04:13:59;5.53;;;1.45;;
56239;SDS011;42154;51.992;5.896;2024-02-23T04:16:25;4.40;;;1.02;;
56239;SDS011;42154;51.992;5.896;2024-02-23T04:18:52;4.30;;;1.77;;
56239;SDS011;42154;51.992;5.896;2024-02-23T04:21:18;6.68;;;1.83;;
56239;SDS011;42154;51.992;5.896;2024-02-23T04:23:44;6.63;;;1.50;;
56239;SDS011;42154;51.992;5.896;2024-02-23T04:26:10;4.88;;;1.23;;
56239;SDS011;42154;51.992;5.896;2024-02-23T04:28:39;5.97;;;1.42;;
56239;SDS011;42154;51.992;5.896;2024-02-23T04:31:05;3.58;;;1.20;;
56239;SDS011;42154;51.992;5.896;2024-02-23T04:33:31;3.60;;;1.10;;
56239;SDS011;42154;51.992;5.896;2024-02-23T04:35:58;4.03;;;1.05;;
56239;SDS011;42154;51.992;5.896;2024-02-23T04:38:23;3.78;;;1.33;;
56239;SDS011;42154;51.992;5.896;2024-02-23T04:40:49;5.68;;;1.70;;
56239;SDS011;42154;51.992;5.896;2024-02-23T04:43:15;5.38;;;1.45;;
56239;SDS011;42154;51.992;5.896;2024-02-23T04:45:41;3.83;;;1.35;;
56239;SDS011;42154;51.992;5.896;2024-02-23T04:48:07;4.18;;;1.58;;
56239;SDS011;42154;51.992;5.896;2024-02-23T04:50:33;11.65;;;1.45;;
56239;SDS011;42154;51.992;5.896;2024-02-23T04:52:58;5.28;;;1.60;;
56239;SDS011;42154;51.992;5.896;2024-02-23T04:55:24;4.10;;;1.55;;
56239;SDS011;42154;51.992;5.896;2024-02-23T04:57:50;6.82;;;1.60;;
56239;SDS011;42154;51.992;5.896;2024-02-23T05:00:15;5.65;;;1.83;;
56239;SDS011;42154;51.992;5.896;2024-02-23T05:02:42;7.80;;;1.63;;
56239;SDS011;42154;51.992;5.896;2024-02-23T05:05:08;4.05;;;1.27;;
56239;SDS011;42154;51.992;5.896;2024-02-23T05:07:34;8.18;;;1.30;;
56239;SDS011;42154;51.992;5.896;2024-02-23T05:09:59;6.68;;;1.60;;
56239;SDS011;42154;51.992;5.896;2024-02-23T05:12:26;7.80;;;1.60;;
56239;SDS011;42154;51.992;5.896;2024-02-23T05:14:51;4.85;;;1.10;;
56239;SDS011;42154;51.992;5.896;2024-02-23T05:17:17;5.75;;;1.33;;
56239;SDS011;42154;51.992;5.896;2024-02-23T05:19:43;6.60;;;1.40;;
56239;SDS011;42154;51.992;5.896;2024-02-23T05:22:09;2.92;;;1.20;;
56239;SDS011;42154;51.992;5.896;2024-02-23T05:24:34;6.80;;;1.65;;
56239;SDS011;42154;51.992;5.896;2024-02-23T05:27:00;7.53;;;1.40;;
56239;SDS011;42154;51.992;5.896;2024-02-23T05:29:28;6.22;;;1.40;;
56239;SDS011;42154;51.992;5.896;2024-02-23T05:31:54;6.68;;;1.45;;
56239;SDS011;42154;51.992;5.896;2024-02-23T05:34:20;6.72;;;1.40;;
56239;SDS011;42154;51.992;5.896;2024-02-23T05:36:46;4.20;;;1.10;;
56239;SDS011;42154;51.992;5.896;2024-02-23T05:39:13;5.07;;;0.77;;
56239;SDS011;42154;51.992;5.896;2024-02-23T05:41:40;6.32;;;1.98;;
56239;SDS011;42154;51.992;5.896;2024-02-23T05:44:06;11.13;;;1.52;;
56239;SDS011;42154;51.992;5.896;2024-02-23T05:46:32;5.72;;;1.42;;
56239;SDS011;42154;51.992;5.896;2024-02-23T05:48:59;2.30;;;1.00;;
56239;SDS011;42154;51.992;5.896;2024-02-23T05:51:27;6.40;;;2.03;;
56239;SDS011;42154;51.992;5.896;2024-02-23T05:53:54;3.75;;;1.10;;
56239;SDS011;42154;51.992;5.896;2024-02-23T05:56:20;3.53;;;1.08;;
56239;SDS011;42154;51.992;5.896;2024-02-23T05:58:46;3.72;;;1.20;;
56239;SDS011;42154;51.992;5.896;2024-02-23T06:01:12;3.33;;;1.45;;
56239;SDS011;42154;51.992;5.896;2024-02-23T06:03:38;3.85;;;1.15;;
56239;SDS011;42154;51.992;5.896;2024-02-23T06:06:06;4.18;;;1.25;;
56239;SDS011;42154;51.992;5.896;2024-02-23T06:08:33;3.65;;;1.48;;
56239;SDS011;42154;51.992;5.896;2024-02-23T06:10:59;6.07;;;1.20;;
56239;SDS011;42154;51.992;5.896;2024-02-23T06:13:25;5.32;;;1.63;;
56239;SDS011;42154;51.992;5.896;2024-02-23T06:15:51;4.20;;;1.63;;
56239;SDS011;42154;51.992;5.896;2024-02-23T06:18:17;6.60;;;1.52;;
56239;SDS011;42154;51.992;5.896;2024-02-23T06:20:42;4.97;;;1.42;;
56239;SDS011;42154;51.992;5.896;2024-02-23T06:23:08;6.32;;;1.73;;
56239;SDS011;42154;51.992;5.896;2024-02-23T06:25:34;7.35;;;1.67;;
56239;SDS011;42154;51.992;5.896;2024-02-23T06:28:00;4.68;;;1.67;;
56239;SDS011;42154;51.992;5.896;2024-02-23T06:30:26;6.80;;;2.15;;
56239;SDS011;42154;51.992;5.896;2024-02-23T06:32:51;7.78;;;1.55;;
56239;SDS011;42154;51.992;5.896;2024-02-23T06:35:17;5.35;;;1.60;;
56239;SDS011;42154;51.992;5.896;2024-02-23T06:37:43;5.40;;;1.75;;
56239;SDS011;42154;51.992;5.896;2024-02-23T06:40:09;6.22;;;1.50;;
56239;SDS011;42154;51.992;5.896;2024-02-23T06:42:35;5.10;;;1.33;;
56239;SDS011;42154;51.992;5.896;2024-02-23T06:45:01;3.78;;;1.35;;
56239;SDS011;42154;51.992;5.896;2024-02-23T06:47:27;9.63;;;1.80;;
56239;SDS011;42154;51.992;5.896;2024-02-23T06:49:53;3.50;;;1.10;;
56239;SDS011;42154;51.992;5.896;2024-02-23T06:52:18;4.95;;;1.08;;
56239;SDS011;42154;51.992;5.896;2024-02-23T06:54:44;7.35;;;1.63;;
56239;SDS011;42154;51.992;5.896;2024-02-23T06:57:10;6.18;;;1.52;;
56239;SDS011;42154;51.992;5.896;2024-02-23T06:59:36;7.88;;;1.38;;
56239;SDS011;42154;51.992;5.896;2024-02-23T07:02:01;3.85;;;1.00;;
56239;SDS011;42154;51.992;5.896;2024-02-23T07:04:27;4.00;;;1.00;;
56239;SDS011;42154;51.992;5.896;2024-02-23T07:06:54;5.60;;;1.65;;
56239;SDS011;42154;51.992;5.896;2024-02-23T07:09:20;3.25;;;1.27;;
56239;SDS011;42154;51.992;5.896;2024-02-23T07:11:46;6.15;;;1.33;;
56239;SDS011;42154;51.992;5.896;2024-02-23T07:14:12;4.22;;;1.10;;
56239;SDS011;42154;51.992;5.896;2024-02-23T07:16:39;4.40;;;1.17;;
56239;SDS011;42154;51.992;5.896;2024-02-23T07:19:06;4.65;;;1.42;;
56239;SDS011;42154;51.992;5.896;2024-02-23T07:21:32;5.50;;;1.27;;
56239;SDS011;42154;51.992;5.896;2024-02-23T07:23:59;4.95;;;1.45;;
56239;SDS011;42154;51.992;5.896;2024-02-23T07:26:25;4.93;;;1.25;;
56239;SDS011;42154;51.992;5.896;2024-02-23T07:28:53;6.35;;;1.70;;
56239;SDS011;42154;51.992;5.896;2024-02-23T07:31:19;6.03;;;1.23;;
56239;SDS011;42154;51.992;5.896;2024-02-23T07:33:45;6.20;;;1.40;;
56239;SDS011;42154;51.992;5.896;2024-02-23T07:36:14;5.00;;;1.08;;
56239;SDS011;42154;51.992;5.896;2024-02-23T07:38:40;3.88;;;1.30;;
56239;SDS011;42154;51.992;5.896;2024-02-23T07:41:06;6.45;;;1.30;;
56239;SDS011;42154;51.992;5.896;2024-02-23T07:43:32;8.88;;;1.55;;
56239;SDS011;42154;51.992;5.896;2024-02-23T07:45:58;5.55;;;1.10;;
56239;SDS011;42154;51.992;5.896;2024-02-23T07:48:23;6.03;;;1.50;;
56239;SDS011;42154;51.992;5.896;2024-02-23T07:50:49;6.82;;;1.33;;
56239;SDS011;42154;51.992;5.896;2024-02-23T07:53:15;6.00;;;1.75;;
56239;SDS011;42154;51.992;5.896;2024-02-23T07:55:40;6.93;;;1.83;;
56239;SDS011;42154;51.992;5.896;2024-02-23T07:58:06;6.90;;;1.55;;
56239;SDS011;42154;51.992;5.896;2024-02-23T08:00:32;5.88;;;1.25;;
56239;SDS011;42154;51.992;5.896;2024-02-23T08:02:59;7.50;;;1.63;;
56239;SDS011;42154;51.992;5.896;2024-02-23T08:05:25;6.60;;;1.08;;
56239;SDS011;42154;51.992;5.896;2024-02-23T08:07:51;3.42;;;0.80;;
56239;SDS011;42154;51.992;5.896;2024-02-23T08:10:17;9.18;;;1.63;;
56239;SDS011;42154;51.992;5.896;2024-02-23T08:12:43;6.18;;;1.05;;
56239;SDS011;42154;51.992;5.896;2024-02-23T08:15:08;3.88;;;1.27;;
56239;SDS011;42154;51.992;5.896;2024-02-23T08:17:34;4.70;;;1.13;;
56239;SDS011;42154;51.992;5.896;2024-02-23T08:20:00;6.97;;;1.17;;
56239;SDS011;42154;51.992;5.896;2024-02-23T08:22:26;5.20;;;1.08;;
56239;SDS011;42154;51.992;5.896;2024-02-23T08:24:53;7.30;;;1.75;;
56239;SDS011;42154;51.992;5.896;2024-02-23T08:27:18;4.88;;;1.58;;
56239;SDS011;42154;51.992;5.896;2024-02-23T08:29:44;4.72;;;1.23;;
56239;SDS011;42154;51.992;5.896;2024-02-23T08:32:10;4.03;;;0.82;;
56239;SDS011;42154;51.992;5.896;2024-02-23T08:34:36;6.40;;;1.70;;
56239;SDS011;42154;51.992;5.896;2024-02-23T08:37:01;4.75;;;1.13;;
56239;SDS011;42154;51.992;5.896;2024-02-23T08:39:28;6.38;;;1.13;;
56239;SDS011;42154;51.992;5.896;2024-02-23T08:41:54;3.92;;;0.90;;
56239;SDS011;42154;51.992;5.896;2024-02-23T08:44:20;4.68;;;1.27;;
56239;SDS011;42154;51.992;5.896;2024-02-23T08:46:45;4.88;;;0.98;;
56239;SDS011;42154;51.992;5.896;2024-02-23T08:49:13;7.70;;;1.65;;
56239;SDS011;42154;51.992;5.896;2024-02-23T08:51:40;6.63;;;1.10;;
56239;SDS011;42154;51.992;5.896;2024-02-23T08:54:05;5.43;;;1.45;;
56239;SDS011;42154;51.992;5.896;2024-02-23T08:56:39;7.03;;;1.42;;
56239;SDS011;42154;51.992;5.896;2024-02-23T08:59:07;5.03;;;1.30;;
56239;SDS011;42154;51.992;5.896;2024-02-23T09:01:34;7.53;;;1.20;;
56239;SDS011;42154;51.992;5.896;2024-02-23T09:04:00;6.72;;;1.30;;
56239;SDS011;42154;51.992;5.896;2024-02-23T09:06:26;7.38;;;1.17;;
56239;SDS011;42154;51.992;5.896;2024-02-23T09:08:52;4.18;;;1.23;;
56239;SDS011;42154;51.992;5.896;2024-02-23T09:11:18;4.95;;;1.30;;
56239;SDS011;42154;51.992;5.896;2024-02-23T09:13:44;6.57;;;1.10;;
56239;SDS011;42154;51.992;5.896;2024-02-23T09:16:09;4.70;;;1.40;;
56239;SDS011;42154;51.992;5.896;2024-02-23T09:18:35;4.90;;;1.17;;
56239;SDS011;42154;51.992;5.896;2024-02-23T09:21:01;8.90;;;1.50;;
56239;SDS011;42154;51.992;5.896;2024-02-23T09:23:27;4.40;;;1.15;;
56239;SDS011;42154;51.992;5.896;2024-02-23T09:25:52;6.35;;;1.10;;
56239;SDS011;42154;51.992;5.896;2024-02-23T09:28:18;4.25;;;1.10;;
56239;SDS011;42154;51.992;5.896;2024-02-23T09:30:44;4.95;;;1.15;;
56239;SDS011;42154;51.992;5.896;2024-02-23T09:33:10;4.95;;;1.10;;
56239;SDS011;42154;51.992;5.896;2024-02-23T09:35:35;4.53;;;1.02;;
56239;SDS011;42154;51.992;5.896;2024-02-23T09:38:01;4.15;;;1.08;;
56239;SDS011;42154;51.992;5.896;2024-02-23T09:40:27;7.38;;;1.73;;
56239;SDS011;42154;51.992;5.896;2024-02-23T09:42:57;6.28;;;1.17;;
56239;SDS011;42154;51.992;5.896;2024-02-23T09:45:24;6.87;;;1.27;;
56239;SDS011;42154;51.992;5.896;2024-02-23T09:47:51;5.50;;;1.40;;
56239;SDS011;42154;51.992;5.896;2024-02-23T09:50:22;5.38;;;1.20;;
56239;SDS011;42154;51.992;5.896;2024-02-23T09:52:49;4.97;;;0.90;;
56239;SDS011;42154;51.992;5.896;2024-02-23T09:55:19;7.55;;;1.10;;
56239;SDS011;42154;51.992;5.896;2024-02-23T10:00:13;3.88;;;0.93;;
56239;SDS011;42154;51.992;5.896;2024-02-23T10:02:42;3.40;;;1.15;;
56239;SDS011;42154;51.992;5.896;2024-02-23T10:05:10;4.20;;;1.42;;
56239;SDS011;42154;51.992;5.896;2024-02-23T10:07:37;5.63;;;0.90;;
56239;SDS011;42154;51.992;5.896;2024-02-23T10:10:06;4.70;;;1.15;;
56239;SDS011;42154;51.992;5.896;2024-02-23T10:12:33;4.95;;;1.30;;
56239;SDS011;42154;51.992;5.896;2024-02-23T10:14:59;8.10;;;1.27;;
56239;SDS011;42154;51.992;5.896;2024-02-23T10:17:29;2.60;;;1.23;;
56239;SDS011;42154;51.992;5.896;2024-02-23T10:19:59;6.07;;;1.17;;
56239;SDS011;42154;51.992;5.896;2024-02-23T10:22:24;4.68;;;1.25;;
56239;SDS011;42154;51.992;5.896;2024-02-23T10:24:50;7.47;;;1.10;;
56239;SDS011;42154;51.992;5.896;2024-02-23T10:27:16;4.90;;;1.00;;
56239;SDS011;42154;51.992;5.896;2024-02-23T10:29:42;3.70;;;0.90;;
56239;SDS011;42154;51.992;5.896;2024-02-23T10:32:09;4.78;;;1.17;;
56239;SDS011;42154;51.992;5.896;2024-02-23T10:34:40;5.88;;;1.30;;
56239;SDS011;42154;51.992;5.896;2024-02-23T10:37:08;4.07;;;1.00;;
56239;SDS011;42154;51.992;5.896;2024-02-23T10:39:36;4.80;;;1.00;;
56239;SDS011;42154;51.992;5.896;2024-02-23T10:42:03;4.45;;;0.77;;
56239;SDS011;42154;51.992;5.896;2024-02-23T10:44:30;7.13;;;1.10;;
56239;SDS011;42154;51.992;5.896;2024-02-23T10:46:58;3.47;;;0.93;;
56239;SDS011;42154;51.992;5.896;2024-02-23T10:49:24;5.35;;;0.90;;
56239;SDS011;42154;51.992;5.896;2024-02-23T10:51:51;5.07;;;1.27;;
56239;SDS011;42154;51.992;5.896;2024-02-23T10:54:21;6.38;;;1.20;;
56239;SDS011;42154;51.992;5.896;2024-02-23T10:56:49;2.60;;;0.70;;
56239;SDS011;42154;51.992;5.896;2024-02-23T10:59:16;4.20;;;0.93;;
56239;SDS011;42154;51.992;5.896;2024-02-23T11:01:52;4.72;;;0.90;;
56239;SDS011;42154;51.992;5.896;2024-02-23T11:04:22;4.35;;;1.08;;
56239;SDS011;42154;51.992;5.896;2024-02-23T11:06:54;3.40;;;1.02;;
56239;SDS011;42154;51.992;5.896;2024-02-23T11:09:24;4.13;;;1.10;;
56239;SDS011;42154;51.992;5.896;2024-02-23T11:11:51;3.17;;;0.77;;
56239;SDS011;42154;51.992;5.896;2024-02-23T11:14:36;4.15;;;0.90;;
56239;SDS011;42154;51.992;5.896;2024-02-23T11:17:03;3.47;;;1.10;;
56239;SDS011;42154;51.992;5.896;2024-02-23T11:19:36;2.42;;;0.70;;
56239;SDS011;42154;51.992;5.896;2024-02-23T11:22:05;3.17;;;0.90;;
56239;SDS011;42154;51.992;5.896;2024-02-23T11:24:34;2.83;;;0.77;;
56239;SDS011;42154;51.992;5.896;2024-02-23T11:27:00;1.80;;;0.60;;
56239;SDS011;42154;51.992;5.896;2024-02-23T11:29:33;2.55;;;0.80;;
56239;SDS011;42154;51.992;5.896;2024-02-23T11:32:00;4.18;;;0.73;;
56239;SDS011;42154;51.992;5.896;2024-02-23T11:34:29;3.47;;;0.70;;
56239;SDS011;42154;51.992;5.896;2024-02-23T11:36:55;2.90;;;0.60;;
56239;SDS011;42154;51.992;5.896;2024-02-23T11:39:23;3.00;;;0.70;;
56239;SDS011;42154;51.992;5.896;2024-02-23T11:41:50;3.63;;;0.80;;
56239;SDS011;42154;51.992;5.896;2024-02-23T11:44:16;4.43;;;1.00;;
56239;SDS011;42154;51.992;5.896;2024-02-23T11:46:46;3.10;;;0.88;;
56239;SDS011;42154;51.992;5.896;2024-02-23T11:49:12;2.10;;;0.50;;
56239;SDS011;42154;51.992;5.896;2024-02-23T11:51:39;4.75;;;1.13;;
56239;SDS011;42154;51.992;5.896;2024-02-23T11:54:05;5.28;;;1.10;;
56239;SDS011;42154;51.992;5.896;2024-02-23T11:56:32;3.15;;;0.85;;
56239;SDS011;42154;51.992;5.896;2024-02-23T11:58:57;2.85;;;0.70;;
56239;SDS011;42154;51.992;5.896;2024-02-23T12:01:23;4.05;;;1.10;;
56239;SDS011;42154;51.992;5.896;2024-02-23T12:03:49;6.57;;;1.40;;
56239;SDS011;42154;51.992;5.896;2024-02-23T12:06:15;3.60;;;0.98;;
56239;SDS011;42154;51.992;5.896;2024-02-23T12:08:42;1.40;;;0.63;;
56239;SDS011;42154;51.992;5.896;2024-02-23T12:11:10;3.65;;;1.55;;
56239;SDS011;42154;51.992;5.896;2024-02-23T12:13:37;4.95;;;0.90;;
56239;SDS011;42154;51.992;5.896;2024-02-23T12:16:03;3.80;;;0.80;;
56239;SDS011;42154;51.992;5.896;2024-02-23T12:18:35;2.05;;;0.70;;
56239;SDS011;42154;51.992;5.896;2024-02-23T12:21:02;7.32;;;1.30;;
56239;SDS011;42154;51.992;5.896;2024-02-23T12:26:23;5.43;;;0.80;;
56239;SDS011;42154;51.992;5.896;2024-02-23T12:28:49;3.40;;;0.90;;
56239;SDS011;42154;51.992;5.896;2024-02-23T12:31:15;4.28;;;0.90;;
56239;SDS011;42154;51.992;5.896;2024-02-23T12:33:40;4.63;;;0.90;;
56239;SDS011;42154;51.992;5.896;2024-02-23T12:36:07;3.60;;;0.90;;
56239;SDS011;42154;51.992;5.896;2024-02-23T12:38:33;4.07;;;1.13;;
56239;SDS011;42154;51.992;5.896;2024-02-23T12:41:00;6.60;;;1.30;;
56239;SDS011;42154;51.992;5.896;2024-02-23T12:43:27;2.00;;;1.10;;
56239;SDS011;42154;51.992;5.896;2024-02-23T12:45:53;3.20;;;0.90;;
56239;SDS011;42154;51.992;5.896;2024-02-23T12:48:20;4.97;;;1.48;;
56239;SDS011;42154;51.992;5.896;2024-02-23T12:50:47;4.50;;;1.15;;
56239;SDS011;42154;51.992;5.896;2024-02-23T12:56:04;3.83;;;0.90;;
56239;SDS011;42154;51.992;5.896;2024-02-23T12:58:33;3.83;;;1.00;;
56239;SDS011;42154;51.992;5.896;2024-02-23T13:01:02;5.00;;;1.35;;
56239;SDS011;42154;51.992;5.896;2024-02-23T13:03:28;2.30;;;0.80;;
56239;SDS011;42154;51.992;5.896;2024-02-23T13:05:57;4.63;;;1.35;;
56239;SDS011;42154;51.992;5.896;2024-02-23T13:08:23;4.35;;;0.93;;
56239;SDS011;42154;51.992;5.896;2024-02-23T13:10:50;6.18;;;1.17;;
56239;SDS011;42154;51.992;5.896;2024-02-23T13:13:16;4.68;;;1.13;;
56239;SDS011;42154;51.992;5.896;2024-02-23T13:15:43;2.20;;;0.90;;
56239;SDS011;42154;51.992;5.896;2024-02-23T13:18:12;2.78;;;1.10;;
56239;SDS011;42154;51.992;5.896;2024-02-23T13:20:38;4.78;;;1.08;;
56239;SDS011;42154;51.992;5.896;2024-02-23T13:23:05;2.55;;;0.82;;
56239;SDS011;42154;51.992;5.896;2024-02-23T13:25:33;2.90;;;1.23;;
56239;SDS011;42154;51.992;5.896;2024-02-23T13:28:00;6.57;;;1.40;;
56239;SDS011;42154;51.992;5.896;2024-02-23T13:30:26;4.10;;;0.75;;
56239;SDS011;42154;51.992;5.896;2024-02-23T13:32:52;6.03;;;1.70;;
56239;SDS011;42154;51.992;5.896;2024-02-23T13:35:18;5.93;;;1.15;;
56239;SDS011;42154;51.992;5.896;2024-02-23T13:37:44;3.17;;;1.00;;
56239;SDS011;42154;51.992;5.896;2024-02-23T13:40:10;5.30;;;1.20;;
56239;SDS011;42154;51.992;5.896;2024-02-23T13:42:36;4.82;;;1.05;;
56239;SDS011;42154;51.992;5.896;2024-02-23T13:45:06;4.35;;;1.10;;
56239;SDS011;42154;51.992;5.896;2024-02-23T13:47:32;5.55;;;1.50;;
56239;SDS011;42154;51.992;5.896;2024-02-23T13:49:59;4.82;;;1.17;;
56239;SDS011;42154;51.992;5.896;2024-02-23T13:52:25;4.60;;;1.00;;
56239;SDS011;42154;51.992;5.896;2024-02-23T13:54:51;4.60;;;1.30;;
56239;SDS011;42154;51.992;5.896;2024-02-23T13:57:17;3.03;;;1.00;;
56239;SDS011;42154;51.992;5.896;2024-02-23T13:59:42;3.65;;;0.82;;
56239;SDS011;42154;51.992;5.896;2024-02-23T14:02:08;4.35;;;1.02;;
56239;SDS011;42154;51.992;5.896;2024-02-23T14:04:34;3.88;;;1.33;;
56239;SDS011;42154;51.992;5.896;2024-02-23T14:07:00;5.32;;;1.20;;
56239;SDS011;42154;51.992;5.896;2024-02-23T14:09:26;3.72;;;0.90;;
56239;SDS011;42154;51.992;5.896;2024-02-23T14:11:52;3.60;;;0.98;;
56239;SDS011;42154;51.992;5.896;2024-02-23T14:14:18;3.55;;;1.20;;
56239;SDS011;42154;51.992;5.896;2024-02-23T14:16:45;5.78;;;1.50;;
56239;SDS011;42154;51.992;5.896;2024-02-23T14:19:11;4.50;;;1.33;;
56239;SDS011;42154;51.992;5.896;2024-02-23T14:21:36;3.95;;;1.33;;
56239;SDS011;42154;51.992;5.896;2024-02-23T14:24:02;5.25;;;1.23;;
56239;SDS011;42154;51.992;5.896;2024-02-23T14:26:29;4.93;;;1.27;;
56239;SDS011;42154;51.992;5.896;2024-02-23T14:28:55;5.28;;;1.13;;
56239;SDS011;42154;51.992;5.896;2024-02-23T14:31:20;3.22;;;0.90;;
56239;SDS011;42154;51.992;5.896;2024-02-23T14:33:46;3.65;;;0.98;;
56239;SDS011;42154;51.992;5.896;2024-02-23T14:36:16;6.05;;;1.35;;
56239;SDS011;42154;51.992;5.896;2024-02-23T14:38:42;3.30;;;1.30;;
56239;SDS011;42154;51.992;5.896;2024-02-23T14:41:08;6.35;;;1.73;;
56239;SDS011;42154;51.992;5.896;2024-02-23T14:43:35;2.55;;;1.15;;
56239;SDS011;42154;51.992;5.896;2024-02-23T14:46:01;4.10;;;1.23;;
56239;SDS011;42154;51.992;5.896;2024-02-23T14:48:27;4.03;;;1.05;;
56239;SDS011;42154;51.992;5.896;2024-02-23T14:50:53;4.40;;;1.38;;